createdAt,value
2019-04-27T00:02:26.571Z,99.90
2019-04-27T00:08:39.152Z,99.90
2019-04-27T00:11:23.329Z,99.90
2019-04-27T00:14:04.742Z,99.90
2019-04-27T00:16:54.096Z,99.90
2019-04-27T00:19:55.629Z,99.90
2019-04-27T00:25:43.794Z,99.90
2019-04-27T00:28:24.510Z,99.90
2019-04-27T00:31:05.589Z,99.90
2019-04-27T00:33:46.117Z,99.90
2019-04-27T00:36:35.084Z,99.90
2019-04-27T00:42:23.222Z,99.90
2019-04-27T00:45:06.578Z,99.90
2019-04-27T00:47:56.509Z,99.90
2019-04-27T00:50:29.841Z,99.90
2019-04-27T00:56:29.017Z,99.90
2019-04-27T01:05:31.623Z,99.90
2019-04-27T01:08:13.920Z,99.90
2019-04-27T01:10:54.456Z,99.90
2019-04-27T01:13:35.105Z,99.90
2019-04-27T01:16:20.093Z,99.90
2019-04-27T01:18:59.132Z,99.90
2019-04-27T01:21:39.702Z,99.90
2019-04-27T01:24:20.561Z,99.90
2019-04-27T01:27:20.935Z,99.90
2019-04-27T01:30:01.811Z,99.90
2019-04-27T01:32:42.967Z,99.90
2019-04-27T01:35:23.336Z,99.90
2019-04-27T01:38:04.108Z,99.90
2019-04-27T01:40:44.526Z,99.90
2019-04-27T01:43:25.224Z,99.90
2019-04-27T01:46:05.743Z,99.90
2019-04-27T01:48:48.909Z,99.90
2019-04-27T01:51:30.671Z,99.90
2019-04-27T01:54:13.287Z,99.90
2019-04-27T01:56:53.654Z,99.90
2019-04-27T01:59:34.859Z,99.90
2019-04-27T02:02:34.959Z,99.90
2019-04-27T02:05:35.267Z,99.90
2019-04-27T02:08:15.710Z,99.90
2019-04-27T02:10:54.937Z,99.90
2019-04-27T02:13:43.043Z,99.90
2019-04-27T02:16:31.107Z,99.90
2019-04-27T02:19:19.490Z,99.90
2019-04-27T02:22:08.904Z,99.90
2019-04-27T02:24:56.966Z,99.90
2019-04-27T02:31:06.363Z,99.90
2019-04-27T02:33:51.922Z,99.90
2019-04-27T02:36:33.065Z,99.90
2019-04-27T02:39:13.830Z,99.90
2019-04-27T02:41:54.846Z,99.90
2019-04-27T02:44:40.569Z,99.90
2019-04-27T02:47:21.154Z,99.90
2019-04-27T02:50:01.652Z,99.90
2019-04-27T02:52:46.380Z,99.90
2019-04-27T02:55:29.261Z,99.90
2019-04-27T02:58:12.498Z,99.90
2019-04-27T03:00:52.254Z,99.90
2019-04-27T03:03:31.468Z,99.90
2019-04-27T03:06:19.981Z,99.90
2019-04-27T03:09:10.455Z,99.90
2019-04-27T03:18:19.494Z,99.90
2019-04-27T03:21:13.156Z,99.90
2019-04-27T03:24:01.323Z,99.90
2019-04-27T03:29:54.909Z,99.90
2019-04-27T03:32:35.914Z,99.90
2019-04-27T03:35:16.956Z,99.90
2019-04-27T03:37:56.129Z,99.90
2019-04-27T03:40:44.203Z,99.90
2019-04-27T03:43:32.305Z,99.90
2019-04-27T03:46:20.706Z,99.90
2019-04-27T03:49:20.376Z,99.90
2019-04-27T03:52:19.855Z,99.90
2019-04-27T03:55:13.291Z,99.90
2019-04-27T03:58:12.092Z,99.90
2019-04-27T04:01:01.528Z,99.90
2019-04-27T04:03:50.218Z,99.90
2019-04-27T04:06:40.147Z,99.90
2019-04-27T04:09:40.359Z,99.90
2019-04-27T04:12:50.104Z,99.90
2019-04-27T04:15:59.966Z,99.90
2019-04-27T04:19:09.483Z,99.90
2019-04-27T04:21:56.567Z,99.90
2019-04-27T04:24:44.623Z,99.90
2019-04-27T04:27:42.516Z,99.90
2019-04-27T04:30:21.988Z,99.90
2019-04-27T04:33:02.445Z,99.90
2019-04-27T04:35:43.673Z,99.90
2019-04-27T04:38:24.340Z,99.90
2019-04-27T04:41:09.568Z,99.90
2019-04-27T04:49:45.603Z,99.90
2019-04-27T04:52:26.380Z,99.90
2019-04-27T04:55:09.696Z,99.90
2019-04-27T04:57:49.967Z,99.90
2019-04-27T05:00:30.749Z,99.90
2019-04-27T05:03:11.607Z,99.90
2019-04-27T05:05:52.425Z,99.90
2019-04-27T05:08:33.535Z,99.90
2019-04-27T05:11:14.643Z,99.90
2019-04-27T05:13:55.433Z,99.90
2019-04-27T05:16:36.693Z,99.90
2019-04-27T05:19:18.892Z,99.90
2019-04-27T05:21:59.861Z,99.90
2019-04-27T05:24:41.119Z,99.90
2019-04-27T05:27:21.503Z,99.90
2019-04-27T05:30:02.057Z,99.90
2019-04-27T05:32:43.177Z,99.90
2019-04-27T05:35:23.769Z,99.90
2019-04-27T05:38:07.290Z,99.90
2019-04-27T05:40:47.437Z,99.90
2019-04-27T05:43:34.744Z,99.90
2019-04-27T05:46:39.488Z,99.90
2019-04-27T05:49:23.920Z,99.90
2019-04-27T05:52:08.546Z,99.90
2019-04-27T05:54:49.437Z,99.90
2019-04-27T05:57:31.550Z,99.90
2019-04-27T06:00:13.695Z,99.90
2019-04-27T06:02:54.456Z,99.90
2019-04-27T06:05:34.960Z,99.90
2019-04-27T06:08:15.558Z,99.90
2019-04-27T06:10:56.190Z,99.90
2019-04-27T06:13:39.182Z,99.90
2019-04-27T06:16:21.061Z,99.90
2019-04-27T06:19:03.345Z,99.90
2019-04-27T06:21:46.485Z,99.90
2019-04-27T06:24:29.772Z,99.90
2019-04-27T06:27:15.193Z,99.90
2019-04-27T06:29:59.305Z,99.90
2019-04-27T06:32:41.309Z,99.90
2019-04-27T06:35:22.843Z,99.90
2019-04-27T06:40:59.060Z,99.90
2019-04-27T06:43:29.384Z,99.90
2019-04-27T06:46:19.891Z,99.90
2019-04-27T06:48:49.554Z,99.90
2019-04-27T06:51:19.556Z,99.90
2019-04-27T06:54:09.248Z,99.90
2019-04-27T06:56:41.986Z,99.90
2019-04-27T06:59:11.919Z,99.90
2019-04-27T07:02:00.912Z,99.90
2019-04-27T07:04:30.759Z,99.90
2019-04-27T07:07:01.757Z,99.90
2019-04-27T07:09:30.723Z,99.90
2019-04-27T07:12:19.270Z,99.90
2019-04-27T07:14:52.829Z,99.90
2019-04-27T07:17:38.849Z,99.90
2019-04-27T07:20:09.018Z,99.90
2019-04-27T07:22:39.672Z,99.90
2019-04-27T07:25:28.902Z,99.90
2019-04-27T07:31:43.895Z,99.90
2019-04-27T07:34:40.417Z,99.90
2019-04-27T07:40:22.155Z,99.90
2019-04-27T07:46:29.829Z,99.90
2019-04-27T07:49:16.684Z,99.90
2019-04-27T07:52:04.923Z,99.90
2019-04-27T07:54:53.027Z,99.90
2019-04-27T07:57:41.105Z,99.90
2019-04-27T08:00:29.392Z,99.90
2019-04-27T08:03:19.442Z,99.90
2019-04-27T08:06:08.510Z,99.90
2019-04-27T08:11:53.380Z,99.90
2019-04-27T08:14:41.670Z,99.90
2019-04-27T08:17:22.327Z,99.90
2019-04-27T08:20:03.183Z,99.90
2019-04-27T08:22:43.977Z,99.90
2019-04-27T08:25:24.943Z,99.90
2019-04-27T08:34:42.824Z,99.90
2019-04-27T08:37:24.942Z,99.90
2019-04-27T08:40:05.888Z,99.90
2019-04-27T08:42:49.184Z,99.90
2019-04-27T08:45:30.234Z,99.90
2019-04-27T08:48:10.892Z,99.90
2019-04-27T08:50:50.833Z,99.90
2019-04-27T08:53:39.758Z,99.90
2019-04-27T08:56:30.486Z,99.90
2019-04-27T08:59:19.496Z,99.90
2019-04-27T09:02:09.330Z,99.90
2019-04-27T09:04:59.503Z,99.90
2019-04-27T09:08:06.424Z,99.90
2019-04-27T09:11:13.544Z,99.90
2019-04-27T09:14:20.749Z,99.90
2019-04-27T09:17:26.774Z,99.90
2019-04-27T09:20:25.108Z,99.90
2019-04-27T09:23:13.146Z,99.90
2019-04-27T09:26:01.340Z,99.90
2019-04-27T09:28:49.396Z,99.90
2019-04-27T09:31:37.496Z,99.90
2019-04-27T09:34:26.115Z,99.90
2019-04-27T09:37:15.982Z,99.90
2019-04-27T09:40:06.327Z,99.90
2019-04-27T09:42:47.544Z,99.90
2019-04-27T09:45:28.536Z,99.90
2019-04-27T09:48:09.087Z,99.90
2019-04-27T09:50:50.392Z,99.90
2019-04-27T09:53:31.629Z,99.90
2019-04-27T09:56:12.648Z,99.90
2019-04-27T09:58:57.017Z,99.90
2019-04-27T10:01:36.343Z,99.90
2019-04-27T10:04:17.488Z,99.90
2019-04-27T10:06:58.221Z,99.90
2019-04-27T10:09:39.047Z,99.90
2019-04-27T10:12:19.829Z,99.90
2019-04-27T10:15:00.738Z,99.90
2019-04-27T10:17:41.475Z,99.90
2019-04-27T10:23:21.443Z,99.90
2019-04-27T10:26:02.563Z,99.90
2019-04-27T10:34:42.336Z,99.90
2019-04-27T10:37:22.733Z,99.90
2019-04-27T10:40:03.506Z,99.90
2019-04-27T10:42:45.908Z,99.90
2019-04-27T10:45:26.807Z,99.90
2019-04-27T10:48:07.623Z,99.90
2019-04-27T10:50:48.375Z,99.90
2019-04-27T10:53:28.979Z,99.90
2019-04-27T10:56:09.517Z,99.90
2019-04-27T10:58:50.172Z,99.90
2019-04-27T11:01:31.567Z,99.90
2019-04-27T11:04:19.000Z,99.90
2019-04-27T11:07:02.387Z,99.90
2019-04-27T11:09:43.577Z,99.90
2019-04-27T11:12:24.275Z,99.90
2019-04-27T11:15:05.889Z,99.90
2019-04-27T11:17:48.159Z,99.90
2019-04-27T11:20:27.774Z,99.90
2019-04-27T11:23:16.482Z,99.90
2019-04-27T11:26:07.580Z,99.90
2019-04-27T11:28:55.706Z,99.90
2019-04-27T11:31:43.751Z,99.90
2019-04-27T11:34:50.919Z,99.90
2019-04-27T11:37:38.946Z,99.90
2019-04-27T11:40:27.342Z,99.90
2019-04-27T11:43:16.074Z,99.90
2019-04-27T11:46:06.163Z,99.90
2019-04-27T11:48:58.049Z,99.90
2019-04-27T11:51:46.442Z,99.90
2019-04-27T11:54:35.624Z,99.90
2019-04-27T11:57:24.334Z,99.90
2019-04-27T12:03:22.068Z,99.90
2019-04-27T12:06:10.149Z,99.90
2019-04-27T12:08:58.152Z,98.70
2019-04-27T12:11:46.312Z,98.10
2019-04-27T12:14:34.355Z,98.70
2019-04-27T12:17:16.508Z,98.50
2019-04-27T12:19:57.490Z,97.60
2019-04-27T12:22:38.265Z,96.80
2019-04-27T12:25:19.039Z,97.00
2019-04-27T12:28:18.818Z,96.20
2019-04-27T12:31:18.515Z,96.90
2019-04-27T12:33:58.965Z,96.90
2019-04-27T12:36:39.339Z,98.50
2019-04-27T12:39:19.727Z,98.70
2019-04-27T12:42:00.451Z,98.20
2019-04-27T12:44:42.452Z,98.60
2019-04-27T12:47:22.059Z,99.60
2019-04-27T12:50:10.301Z,99.90
2019-04-27T12:56:13.851Z,99.90
2019-04-27T13:05:10.819Z,99.90
2019-04-27T13:07:58.859Z,97.70
2019-04-27T13:10:46.887Z,98.00
2019-04-27T13:13:36.697Z,99.40
2019-04-27T13:16:24.699Z,99.90
2019-04-27T13:19:12.781Z,99.90
2019-04-27T13:22:00.998Z,99.70
2019-04-27T13:24:49.091Z,99.90
2019-04-27T13:27:37.108Z,99.90
2019-04-27T13:30:25.755Z,99.90
2019-04-27T13:33:17.238Z,98.90
2019-04-27T13:36:07.244Z,98.30
2019-04-27T13:38:55.994Z,98.40
2019-04-27T13:41:37.701Z,98.20
2019-04-27T13:44:18.333Z,97.20
2019-04-27T13:47:18.386Z,96.90
2019-04-27T13:50:24.085Z,96.00
2019-04-27T13:53:06.024Z,96.30
2019-04-27T13:55:48.464Z,95.60
2019-04-27T13:58:29.078Z,95.30
2019-04-27T14:01:09.575Z,95.00
2019-04-27T14:03:49.997Z,94.10
2019-04-27T14:06:30.334Z,94.10
2019-04-27T14:09:12.673Z,93.50
2019-04-27T14:11:57.336Z,93.00
2019-04-27T14:14:39.002Z,93.00
2019-04-27T14:17:20.169Z,93.00
2019-04-27T14:20:00.742Z,93.20
2019-04-27T14:22:41.338Z,93.20
2019-04-27T14:25:21.858Z,93.00
2019-04-27T14:28:02.935Z,92.90
2019-04-27T14:30:42.389Z,93.40
2019-04-27T14:33:23.211Z,93.50
2019-04-27T14:36:03.819Z,92.20
2019-04-27T14:38:44.603Z,91.90
2019-04-27T14:41:25.208Z,91.30
2019-04-27T14:44:08.782Z,89.30
2019-04-27T14:46:48.645Z,90.00
2019-04-27T14:49:29.718Z,90.50
2019-04-27T14:52:10.788Z,89.80
2019-04-27T14:54:51.566Z,90.80
2019-04-27T14:57:32.212Z,90.20
2019-04-27T15:00:14.716Z,90.30
2019-04-27T15:02:55.587Z,91.10
2019-04-27T15:05:36.622Z,90.50
2019-04-27T15:08:17.285Z,91.50
2019-04-27T15:10:57.920Z,91.20
2019-04-27T15:13:43.165Z,90.90
2019-04-27T15:16:21.275Z,91.20
2019-04-27T15:19:05.444Z,90.90
2019-04-27T15:21:56.432Z,90.40
2019-04-27T15:24:28.979Z,91.20
2019-04-27T15:27:11.315Z,91.10
2019-04-27T15:29:55.830Z,91.20
2019-04-27T15:32:53.807Z,91.20
2019-04-27T15:35:44.016Z,90.10
2019-04-27T15:38:26.348Z,89.20
2019-04-27T15:41:30.411Z,90.00
2019-04-27T15:44:09.611Z,89.30
2019-04-27T15:46:50.869Z,89.00
2019-04-27T15:49:31.237Z,88.90
2019-04-27T15:52:12.056Z,88.50
2019-04-27T15:54:52.879Z,88.50
2019-04-27T15:57:33.610Z,90.00
2019-04-27T16:00:20.990Z,90.30
2019-04-27T16:03:03.151Z,90.60
2019-04-27T16:05:44.212Z,91.10
2019-04-27T16:08:24.976Z,91.00
2019-04-27T16:11:11.740Z,91.60
2019-04-27T16:13:48.956Z,92.00
2019-04-27T16:16:33.381Z,92.80
2019-04-27T16:19:12.008Z,93.10
2019-04-27T16:21:54.089Z,93.70
2019-04-27T16:24:35.011Z,93.50
2019-04-27T16:27:18.058Z,93.50
2019-04-27T16:30:04.696Z,93.70
2019-04-27T16:32:44.533Z,93.80
2019-04-27T16:35:23.747Z,94.00
2019-04-27T16:41:14.477Z,94.90
2019-04-27T16:43:55.304Z,95.40
2019-04-27T16:46:39.434Z,95.80
2019-04-27T16:49:18.828Z,96.40
2019-04-27T16:52:00.014Z,96.80
2019-04-27T16:54:40.832Z,97.20
2019-04-27T16:57:21.556Z,97.70
2019-04-27T17:00:02.398Z,98.20
2019-04-27T17:02:43.254Z,98.60
2019-04-27T17:05:24.438Z,99.30
2019-04-27T17:08:06.382Z,99.40
2019-04-27T17:10:47.452Z,99.80
2019-04-27T17:13:30.589Z,99.90
2019-04-27T17:19:16.884Z,99.90
2019-04-27T17:21:57.565Z,99.90
2019-04-27T17:24:43.936Z,99.90
2019-04-27T17:27:29.799Z,99.90
2019-04-27T17:30:01.448Z,99.90
2019-04-27T17:33:11.841Z,99.90
2019-04-27T17:35:57.668Z,99.90
2019-04-27T17:38:50.713Z,99.90
2019-04-27T17:41:36.429Z,99.90
2019-04-27T17:44:24.463Z,99.90
2019-04-27T17:47:12.714Z,99.90
2019-04-27T17:50:00.886Z,99.90
2019-04-27T17:52:55.022Z,99.90
2019-04-27T17:55:39.051Z,99.90
2019-04-27T17:58:28.556Z,99.90
2019-04-27T18:01:19.180Z,99.90
2019-04-27T18:04:10.484Z,99.90
2019-04-27T18:07:02.117Z,99.90
2019-04-27T18:09:48.223Z,99.90
2019-04-27T18:12:36.148Z,99.90
2019-04-27T18:15:24.311Z,99.90
2019-04-27T18:18:31.617Z,99.90
2019-04-27T18:21:00.836Z,99.90
2019-04-27T18:32:59.398Z,99.90
2019-04-27T18:35:38.704Z,99.90
2019-04-27T18:38:19.409Z,99.90
2019-04-27T18:41:03.075Z,99.90
2019-04-27T18:43:50.615Z,99.90
2019-04-27T18:46:25.520Z,99.90
2019-04-27T18:52:29.106Z,99.90
2019-04-27T18:55:11.415Z,99.90
2019-04-27T18:57:54.345Z,99.90
2019-04-27T19:00:34.777Z,99.90
2019-04-27T19:03:15.568Z,99.90
2019-04-27T19:05:55.995Z,99.90
2019-04-27T19:08:38.494Z,99.90
2019-04-27T19:11:19.958Z,99.90
2019-04-27T19:14:00.490Z,99.90
2019-04-27T19:16:41.482Z,99.90
2019-04-27T19:19:22.299Z,99.90
2019-04-27T19:22:03.129Z,99.90
2019-04-27T19:24:43.956Z,99.90
2019-04-27T19:27:43.540Z,99.90
2019-04-27T19:33:23.230Z,99.90
2019-04-27T19:36:04.160Z,99.90
2019-04-27T19:38:43.467Z,99.90
2019-04-27T19:41:31.545Z,99.90
2019-04-27T19:44:19.648Z,99.90
2019-04-27T19:47:21.797Z,99.90
2019-04-27T19:49:57.599Z,99.90
2019-04-27T19:52:45.718Z,99.90
2019-04-27T19:55:33.788Z,99.90
2019-04-27T19:58:21.860Z,99.90
2019-04-27T20:01:29.543Z,99.90
2019-04-27T20:04:36.694Z,99.90
2019-04-27T20:07:25.052Z,99.90
2019-04-27T20:10:13.521Z,99.90
2019-04-27T20:13:01.630Z,99.90
2019-04-27T20:15:51.237Z,99.90
2019-04-27T20:18:41.165Z,99.90
2019-04-27T20:21:30.824Z,99.90
2019-04-27T20:24:19.232Z,99.90
2019-04-27T20:30:28.315Z,99.90
2019-04-27T20:43:52.881Z,99.90
2019-04-27T20:46:45.514Z,99.90
2019-04-27T20:49:38.166Z,99.90
2019-04-27T20:52:50.164Z,99.90
2019-04-27T20:55:42.803Z,99.90
2019-04-27T20:58:34.153Z,99.90
2019-04-27T21:01:12.467Z,99.90
2019-04-27T21:04:39.687Z,99.90
2019-04-27T21:14:38.777Z,99.90
2019-04-27T21:17:50.742Z,99.90
2019-04-27T21:21:04.573Z,99.90
2019-04-27T21:30:40.603Z,99.90
2019-04-27T21:33:48.787Z,99.90
2019-04-27T21:36:31.038Z,99.90
2019-04-27T21:39:14.709Z,99.90
2019-04-27T21:42:02.353Z,99.90
2019-04-27T21:44:46.385Z,99.90
2019-04-27T21:47:28.329Z,99.90
2019-04-27T21:50:11.967Z,99.90
2019-04-27T21:55:42.536Z,99.90
2019-04-27T21:58:31.665Z,99.90
2019-04-27T22:21:13.146Z,99.90
2019-04-27T22:30:26.008Z,99.90
2019-04-27T22:33:37.562Z,99.90
2019-04-27T22:37:13.676Z,99.90
2019-04-27T22:40:24.349Z,99.90
2019-04-27T22:43:33.986Z,99.90
2019-04-27T22:49:25.110Z,99.90
2019-04-27T22:59:03.167Z,99.90
2019-04-27T23:02:31.731Z,99.90
2019-04-27T23:05:21.891Z,99.90
2019-04-27T23:11:51.670Z,99.90
2019-04-27T23:14:47.329Z,99.90
2019-04-27T23:18:14.199Z,99.90
2019-04-27T23:24:36.932Z,99.90
2019-04-27T23:27:28.707Z,99.90
2019-04-27T23:36:41.577Z,99.90
2019-04-27T23:39:28.063Z,99.90
2019-04-27T23:42:13.031Z,99.90
